createdAt,value
2019-04-27T00:01:33.606Z,42.93
2019-04-27T00:04:21.428Z,52.48
2019-04-27T00:06:59.111Z,52.30
2019-04-27T00:09:41.229Z,47.83
2019-04-27T00:12:11.151Z,41.00
2019-04-27T00:14:41.298Z,51.70
2019-04-27T00:17:43.516Z,53.05
2019-04-27T00:20:04.393Z,58.25
2019-04-27T00:22:36.308Z,48.70
2019-04-27T00:25:06.638Z,44.58
2019-04-27T00:27:36.833Z,55.48
2019-04-27T00:30:07.581Z,44.45
2019-04-27T00:32:39.753Z,52.45
2019-04-27T00:35:11.121Z,43.73
2019-04-27T00:37:45.627Z,49.98
2019-04-27T00:40:34.997Z,43.78
2019-04-27T00:43:05.005Z,44.77
2019-04-27T00:45:34.974Z,48.78
2019-04-27T00:48:05.217Z,54.08
2019-04-27T00:50:35.157Z,38.63
2019-04-27T00:53:05.163Z,51.37
2019-04-27T00:55:37.074Z,46.18
2019-04-27T00:58:27.081Z,44.73
2019-04-27T01:00:58.716Z,48.85
2019-04-27T01:03:39.443Z,52.40
2019-04-27T01:06:09.420Z,46.45
2019-04-27T01:08:39.376Z,46.73
2019-04-27T01:11:09.390Z,48.70
2019-04-27T01:13:39.368Z,53.25
2019-04-27T01:16:10.469Z,49.30
2019-04-27T01:18:42.307Z,55.33
2019-04-27T01:21:12.302Z,43.52
2019-04-27T01:23:42.438Z,48.30
2019-04-27T01:26:22.947Z,52.25
2019-04-27T01:28:59.100Z,44.38
2019-04-27T01:31:29.927Z,46.95
2019-04-27T01:33:59.977Z,45.17
2019-04-27T01:36:29.933Z,46.00
2019-04-27T01:38:59.927Z,45.80
2019-04-27T01:41:29.967Z,47.25
2019-04-27T01:44:01.190Z,44.98
2019-04-27T01:46:31.044Z,49.05
2019-04-27T01:49:01.000Z,36.20
2019-04-27T01:51:30.931Z,37.50
2019-04-27T01:54:01.058Z,36.65
2019-04-27T01:56:31.079Z,43.92
2019-04-27T01:59:01.098Z,44.08
2019-04-27T02:01:50.024Z,43.25
2019-04-27T02:04:24.181Z,41.55
2019-04-27T02:06:55.795Z,46.13
2019-04-27T02:09:25.796Z,42.40
2019-04-27T02:11:55.872Z,41.63
2019-04-27T02:14:25.887Z,39.40
2019-04-27T02:16:55.822Z,33.75
2019-04-27T02:19:26.767Z,39.05
2019-04-27T02:21:56.803Z,33.80
2019-04-27T02:24:26.718Z,33.15
2019-04-27T02:26:58.782Z,26.35
2019-04-27T02:29:33.216Z,27.30
2019-04-27T02:32:04.964Z,26.37
2019-04-27T02:34:52.902Z,26.55
2019-04-27T02:37:22.921Z,22.95
2019-04-27T02:39:52.613Z,29.63
2019-04-27T02:42:24.182Z,27.05
2019-04-27T02:44:54.286Z,20.23
2019-04-27T02:47:24.350Z,31.40
2019-04-27T02:49:54.286Z,25.15
2019-04-27T02:52:25.862Z,19.17
2019-04-27T02:54:59.343Z,15.75
2019-04-27T02:57:30.340Z,22.05
2019-04-27T03:00:02.775Z,22.45
2019-04-27T03:02:34.431Z,15.23
2019-04-27T03:05:05.632Z,16.02
2019-04-27T03:07:35.636Z,22.40
2019-04-27T03:10:09.697Z,16.30
2019-04-27T03:12:42.381Z,15.30
2019-04-27T03:15:23.378Z,12.75
2019-04-27T03:17:55.400Z,22.85
2019-04-27T03:20:29.860Z,14.05
2019-04-27T03:23:00.783Z,17.73
2019-04-27T03:25:41.319Z,14.13
2019-04-27T03:28:12.594Z,12.65
2019-04-27T03:30:43.629Z,16.57
2019-04-27T03:33:13.903Z,18.25
2019-04-27T03:35:44.302Z,19.23
2019-04-27T03:38:14.738Z,14.38
2019-04-27T03:40:44.966Z,12.95
2019-04-27T03:43:16.614Z,13.28
2019-04-27T03:45:46.632Z,12.23
2019-04-27T03:48:16.814Z,13.15
2019-04-27T03:50:54.410Z,17.23
2019-04-27T03:53:39.734Z,17.32
2019-04-27T03:56:30.184Z,15.80
2019-04-27T03:59:09.826Z,14.10
2019-04-27T04:01:39.758Z,10.93
2019-04-27T04:04:10.866Z,11.25
2019-04-27T04:06:40.944Z,11.60
2019-04-27T04:09:12.663Z,13.90
2019-04-27T04:11:44.272Z,15.93
2019-04-27T04:14:20.279Z,16.55
2019-04-27T04:16:52.081Z,12.73
2019-04-27T04:19:22.098Z,11.10
2019-04-27T04:21:52.192Z,14.93
2019-04-27T04:24:22.223Z,11.45
2019-04-27T04:26:53.951Z,12.20
2019-04-27T04:29:23.954Z,15.32
2019-04-27T04:31:53.732Z,10.78
2019-04-27T04:34:23.716Z,15.60
2019-04-27T04:36:53.648Z,13.13
2019-04-27T04:39:23.817Z,12.00
2019-04-27T04:41:59.735Z,21.33
2019-04-27T04:44:31.150Z,13.50
2019-04-27T04:47:20.741Z,15.80
2019-04-27T04:50:07.043Z,19.25
2019-04-27T04:52:23.158Z,16.55
2019-04-27T04:54:53.153Z,17.23
2019-04-27T04:57:23.232Z,19.98
2019-04-27T04:59:53.223Z,18.82
2019-04-27T05:02:23.366Z,22.55
2019-04-27T05:04:53.485Z,19.50
2019-04-27T05:07:23.450Z,17.27
2019-04-27T05:09:53.435Z,22.98
2019-04-27T05:12:23.414Z,22.62
2019-04-27T05:14:53.419Z,20.55
2019-04-27T05:17:23.405Z,17.35
2019-04-27T05:19:53.819Z,22.27
2019-04-27T05:22:23.772Z,20.32
2019-04-27T05:25:02.712Z,21.93
2019-04-27T05:27:32.745Z,21.95
2019-04-27T05:30:02.885Z,21.48
2019-04-27T05:32:33.174Z,21.62
2019-04-27T05:35:03.355Z,21.75
2019-04-27T05:37:33.327Z,23.18
2019-04-27T05:40:03.368Z,21.25
2019-04-27T05:42:33.439Z,22.17
2019-04-27T05:45:19.463Z,24.30
2019-04-27T05:47:51.897Z,27.50
2019-04-27T05:50:21.953Z,24.57
2019-04-27T05:52:52.243Z,29.90
2019-04-27T05:55:22.235Z,29.25
2019-04-27T05:57:53.271Z,30.70
2019-04-27T06:00:23.240Z,31.85
2019-04-27T06:02:53.476Z,32.95
2019-04-27T06:05:23.469Z,29.23
2019-04-27T06:07:53.507Z,31.35
2019-04-27T06:10:23.467Z,31.23
2019-04-27T06:12:53.470Z,34.27
2019-04-27T06:15:23.441Z,28.95
2019-04-27T06:17:53.414Z,33.23
2019-04-27T06:20:23.362Z,32.42
2019-04-27T06:22:53.733Z,33.67
2019-04-27T06:25:23.715Z,31.25
2019-04-27T06:27:53.733Z,32.00
2019-04-27T06:30:24.735Z,35.70
2019-04-27T06:32:54.866Z,36.33
2019-04-27T06:35:24.871Z,33.08
2019-04-27T06:37:54.894Z,36.23
2019-04-27T06:40:24.843Z,37.25
2019-04-27T06:42:55.116Z,34.38
2019-04-27T06:45:25.044Z,36.98
2019-04-27T06:47:55.043Z,35.43
2019-04-27T06:50:25.075Z,33.18
2019-04-27T06:52:55.045Z,31.60
2019-04-27T06:55:25.065Z,30.32
2019-04-27T06:57:55.243Z,30.45
2019-04-27T07:00:25.491Z,32.20
2019-04-27T07:02:55.528Z,30.43
2019-04-27T07:05:25.565Z,26.80
2019-04-27T07:07:55.514Z,28.57
2019-04-27T07:10:25.483Z,28.45
2019-04-27T07:12:55.466Z,22.90
2019-04-27T07:15:25.459Z,27.00
2019-04-27T07:17:55.414Z,22.95
2019-04-27T07:20:25.429Z,24.15
2019-04-27T07:22:55.383Z,22.73
2019-04-27T07:25:25.337Z,20.90
2019-04-27T07:27:55.292Z,19.62
2019-04-27T07:30:25.235Z,23.10
2019-04-27T07:32:55.452Z,21.02
2019-04-27T07:35:25.376Z,20.88
2019-04-27T07:37:55.405Z,19.70
2019-04-27T07:40:25.419Z,21.80
2019-04-27T07:42:57.016Z,20.95
2019-04-27T07:45:29.489Z,25.05
2019-04-27T07:47:59.548Z,24.43
2019-04-27T07:50:29.512Z,23.00
2019-04-27T07:52:59.472Z,24.20
2019-04-27T07:55:29.423Z,28.15
2019-04-27T07:57:59.897Z,25.35
2019-04-27T08:00:30.027Z,23.10
2019-04-27T08:03:00.356Z,24.27
2019-04-27T08:05:30.480Z,27.50
2019-04-27T08:08:00.467Z,27.85
2019-04-27T08:10:31.619Z,24.98
2019-04-27T08:13:01.575Z,25.37
2019-04-27T08:15:32.061Z,22.90
2019-04-27T08:18:02.623Z,19.95
2019-04-27T08:20:33.663Z,20.65
2019-04-27T08:23:04.523Z,27.90
2019-04-27T08:25:34.511Z,18.73
2019-04-27T08:28:10.424Z,19.37
2019-04-27T08:30:51.245Z,21.12
2019-04-27T08:33:21.222Z,22.50
2019-04-27T08:35:51.298Z,18.52
2019-04-27T08:38:21.306Z,20.62
2019-04-27T08:40:51.498Z,17.23
2019-04-27T08:43:21.455Z,19.48
2019-04-27T08:45:51.696Z,18.00
2019-04-27T08:48:33.823Z,19.42
2019-04-27T08:50:53.287Z,21.00
2019-04-27T08:53:23.265Z,17.17
2019-04-27T08:55:53.222Z,13.90
2019-04-27T08:58:23.167Z,11.53
2019-04-27T09:00:53.565Z,15.08
2019-04-27T09:03:23.576Z,14.93
2019-04-27T09:05:53.546Z,18.37
2019-04-27T09:08:25.505Z,16.52
2019-04-27T09:10:58.891Z,15.60
2019-04-27T09:13:41.400Z,15.88
2019-04-27T09:16:16.199Z,17.35
2019-04-27T09:18:46.172Z,13.05
2019-04-27T09:21:16.144Z,18.27
2019-04-27T09:23:46.486Z,15.48
2019-04-27T09:26:16.442Z,16.32
2019-04-27T09:28:46.612Z,18.75
2019-04-27T09:31:16.718Z,19.07
2019-04-27T09:33:46.817Z,18.37
2019-04-27T09:36:16.736Z,20.57
2019-04-27T09:38:46.707Z,17.60
2019-04-27T09:41:17.044Z,21.60
2019-04-27T09:43:47.311Z,19.80
2019-04-27T09:46:17.363Z,18.42
2019-04-27T09:48:47.303Z,17.35
2019-04-27T09:51:17.299Z,19.85
2019-04-27T09:53:51.566Z,21.50
2019-04-27T09:56:21.585Z,20.72
2019-04-27T09:58:51.583Z,15.75
2019-04-27T10:01:21.598Z,17.77
2019-04-27T10:03:51.629Z,17.52
2019-04-27T10:06:21.572Z,18.40
2019-04-27T10:08:51.267Z,20.12
2019-04-27T10:11:21.303Z,18.10
2019-04-27T10:13:51.730Z,17.92
2019-04-27T10:16:21.703Z,18.87
2019-04-27T10:18:52.848Z,19.25
2019-04-27T10:21:22.828Z,20.20
2019-04-27T10:23:52.804Z,23.57
2019-04-27T10:26:22.771Z,23.27
2019-04-27T10:28:52.710Z,26.17
2019-04-27T10:31:22.783Z,22.20
2019-04-27T10:33:52.748Z,26.62
2019-04-27T10:36:27.101Z,21.80
2019-04-27T10:38:57.036Z,27.17
2019-04-27T10:41:26.979Z,24.23
2019-04-27T10:43:56.975Z,23.73
2019-04-27T10:46:27.010Z,20.80
2019-04-27T10:48:56.631Z,21.35
2019-04-27T10:51:26.266Z,22.50
2019-04-27T10:53:56.103Z,20.05
2019-04-27T10:56:27.363Z,22.48
2019-04-27T10:58:57.410Z,23.80
2019-04-27T11:01:27.444Z,21.42
2019-04-27T11:04:11.043Z,22.50
2019-04-27T11:06:45.454Z,21.65
2019-04-27T11:09:20.720Z,20.08
2019-04-27T11:11:52.262Z,17.75
2019-04-27T11:14:26.172Z,18.12
2019-04-27T11:17:22.161Z,20.55
2019-04-27T11:19:52.121Z,16.67
2019-04-27T11:22:23.731Z,18.00
2019-04-27T11:24:53.705Z,18.35
2019-04-27T11:27:23.945Z,20.92
2019-04-27T11:29:53.900Z,19.15
2019-04-27T11:32:23.911Z,18.77
2019-04-27T11:34:58.542Z,20.27
2019-04-27T11:37:32.576Z,17.57
2019-04-27T11:40:02.605Z,18.10
2019-04-27T11:42:32.621Z,20.08
2019-04-27T11:45:02.642Z,17.12
2019-04-27T11:47:32.670Z,17.80
2019-04-27T11:50:02.625Z,18.30
2019-04-27T11:52:33.100Z,15.03
2019-04-27T11:55:03.203Z,19.23
2019-04-27T11:57:35.728Z,14.90
2019-04-27T12:00:09.221Z,15.83
2019-04-27T12:02:39.182Z,15.23
2019-04-27T12:05:09.755Z,15.65
2019-04-27T12:07:39.716Z,14.75
2019-04-27T12:10:10.152Z,15.38
2019-04-27T12:12:40.170Z,14.98
2019-04-27T12:15:10.984Z,14.23
2019-04-27T12:17:41.028Z,14.83
2019-04-27T12:20:11.006Z,16.02
2019-04-27T12:22:41.052Z,19.55
2019-04-27T12:25:11.562Z,20.43
2019-04-27T12:27:43.186Z,20.40
2019-04-27T12:30:26.803Z,20.82
2019-04-27T12:32:56.901Z,21.55
2019-04-27T12:35:26.958Z,21.80
2019-04-27T12:37:56.878Z,18.02
2019-04-27T12:40:26.972Z,18.85
2019-04-27T12:42:58.036Z,17.95
2019-04-27T12:45:27.998Z,18.17
2019-04-27T12:47:57.987Z,18.92
2019-04-27T12:50:28.037Z,18.37
2019-04-27T12:52:59.786Z,17.87
2019-04-27T12:55:36.369Z,18.50
2019-04-27T12:58:22.924Z,18.48
2019-04-27T13:00:54.691Z,16.25
2019-04-27T13:03:26.052Z,17.62
2019-04-27T13:05:56.237Z,16.90
2019-04-27T13:08:26.424Z,18.02
2019-04-27T13:10:57.407Z,17.32
2019-04-27T13:13:27.603Z,22.42
2019-04-27T13:15:57.543Z,19.30
2019-04-27T13:18:27.538Z,21.52
2019-04-27T13:20:57.490Z,23.15
2019-04-27T13:23:30.261Z,20.05
2019-04-27T13:26:00.419Z,20.05
2019-04-27T13:28:30.412Z,22.65
2019-04-27T13:31:00.524Z,20.65
2019-04-27T13:33:30.512Z,21.75
2019-04-27T13:36:00.468Z,22.40
2019-04-27T13:38:31.470Z,22.32
2019-04-27T13:41:08.323Z,24.87
2019-04-27T13:43:38.922Z,22.73
2019-04-27T13:46:11.122Z,24.20
2019-04-27T13:48:59.474Z,24.43
2019-04-27T13:51:32.181Z,26.80
2019-04-27T13:54:14.438Z,24.57
2019-04-27T13:56:34.975Z,28.57
2019-04-27T13:59:07.708Z,29.52
2019-04-27T14:01:37.564Z,28.20
2019-04-27T14:04:07.517Z,29.45
2019-04-27T14:06:37.536Z,33.13
2019-04-27T14:09:09.212Z,36.33
2019-04-27T14:11:40.212Z,36.10
2019-04-27T14:14:10.913Z,34.63
2019-04-27T14:16:43.686Z,35.70
2019-04-27T14:19:12.508Z,32.23
2019-04-27T14:21:42.505Z,37.88
2019-04-27T14:24:12.426Z,34.23
2019-04-27T14:26:42.627Z,33.83
2019-04-27T14:29:14.111Z,32.15
2019-04-27T14:31:44.070Z,34.20
2019-04-27T14:34:38.277Z,35.43
2019-04-27T14:37:08.736Z,27.95
2019-04-27T14:39:39.064Z,25.12
2019-04-27T14:42:09.406Z,24.63
2019-04-27T14:44:39.359Z,23.35
2019-04-27T14:47:09.415Z,24.92
2019-04-27T14:49:39.355Z,21.05
2019-04-27T14:52:09.683Z,24.10
2019-04-27T14:54:48.172Z,29.48
2019-04-27T14:57:13.542Z,23.92
2019-04-27T14:59:43.602Z,27.98
2019-04-27T15:02:14.079Z,25.37
2019-04-27T15:04:47.061Z,28.20
2019-04-27T15:07:15.815Z,29.05
2019-04-27T15:09:49.545Z,27.05
2019-04-27T15:12:17.512Z,27.40
2019-04-27T15:14:47.591Z,31.00
2019-04-27T15:17:23.286Z,31.20
2019-04-27T15:19:54.092Z,29.30
2019-04-27T15:22:25.740Z,27.45
2019-04-27T15:25:09.362Z,29.63
2019-04-27T15:27:30.883Z,29.92
2019-04-27T15:30:06.043Z,26.85
2019-04-27T15:32:39.438Z,28.92
2019-04-27T15:35:11.350Z,29.57
2019-04-27T15:37:45.824Z,30.57
2019-04-27T15:40:33.227Z,31.57
2019-04-27T15:43:04.818Z,31.50
2019-04-27T15:45:34.772Z,28.73
2019-04-27T15:48:04.779Z,31.52
2019-04-27T15:50:34.992Z,34.80
2019-04-27T15:53:09.472Z,33.02
2019-04-27T15:55:39.620Z,38.00
2019-04-27T15:58:09.937Z,33.33
2019-04-27T16:00:40.000Z,39.13
2019-04-27T16:03:10.449Z,31.85
2019-04-27T16:05:40.375Z,37.50
2019-04-27T16:08:15.331Z,35.48
2019-04-27T16:10:42.202Z,34.35
2019-04-27T16:13:15.134Z,40.05
2019-04-27T16:15:48.160Z,35.52
2019-04-27T16:18:15.795Z,38.15
2019-04-27T16:20:45.754Z,39.20
2019-04-27T16:23:15.790Z,34.75
2019-04-27T16:25:48.922Z,37.10
2019-04-27T16:28:18.416Z,34.33
2019-04-27T16:30:52.358Z,34.90
2019-04-27T16:33:23.384Z,32.63
2019-04-27T16:35:53.020Z,34.92
2019-04-27T16:38:33.588Z,32.42
2019-04-27T16:41:03.352Z,31.17
2019-04-27T16:43:32.893Z,31.00
2019-04-27T16:46:04.483Z,32.03
2019-04-27T16:48:36.203Z,31.25
2019-04-27T16:51:06.507Z,30.50
2019-04-27T16:53:40.241Z,34.13
2019-04-27T16:56:14.414Z,32.20
2019-04-27T16:58:39.954Z,35.58
2019-04-27T17:01:13.520Z,33.60
2019-04-27T17:03:43.591Z,29.40
2019-04-27T17:06:14.583Z,27.73
2019-04-27T17:08:49.127Z,25.37
2019-04-27T17:11:19.615Z,26.93
2019-04-27T17:13:53.527Z,26.02
2019-04-27T17:16:43.636Z,24.77
2019-04-27T17:19:21.167Z,23.07
2019-04-27T17:21:51.289Z,22.17
2019-04-27T17:24:42.276Z,23.32
2019-04-27T17:27:11.635Z,20.27
2019-04-27T17:29:42.503Z,24.10
2019-04-27T17:32:14.067Z,17.90
2019-04-27T17:34:44.066Z,19.23
2019-04-27T17:37:14.014Z,18.65
2019-04-27T17:39:44.059Z,21.82
2019-04-27T17:42:14.083Z,17.55
2019-04-27T17:44:44.067Z,16.57
2019-04-27T17:47:20.012Z,17.60
2019-04-27T17:49:48.818Z,15.83
2019-04-27T17:52:18.924Z,19.95
2019-04-27T17:54:48.964Z,19.25
2019-04-27T17:57:22.359Z,18.30
2019-04-27T17:59:58.478Z,20.82
2019-04-27T18:02:22.297Z,20.55
2019-04-27T18:04:52.287Z,24.12
2019-04-27T18:07:22.247Z,20.27
2019-04-27T18:09:52.216Z,20.20
2019-04-27T18:12:22.211Z,19.77
2019-04-27T18:14:52.169Z,19.37
2019-04-27T18:17:22.800Z,19.87
2019-04-27T18:19:54.419Z,17.42
2019-04-27T18:22:24.481Z,20.95
2019-04-27T18:25:03.390Z,17.32
2019-04-27T18:27:33.635Z,16.65
2019-04-27T18:30:28.709Z,20.12
2019-04-27T18:33:01.955Z,16.93
2019-04-27T18:35:30.776Z,15.80
2019-04-27T18:38:01.926Z,17.30
2019-04-27T18:40:33.490Z,16.17
2019-04-27T18:43:06.527Z,16.00
2019-04-27T18:45:38.077Z,15.23
2019-04-27T18:48:13.578Z,16.23
2019-04-27T18:51:00.766Z,16.42
2019-04-27T18:53:32.503Z,14.23
2019-04-27T18:56:05.390Z,17.32
2019-04-27T18:58:34.215Z,17.10
2019-04-27T19:01:04.242Z,17.07
2019-04-27T19:03:34.274Z,17.25
2019-04-27T19:06:04.506Z,17.20
2019-04-27T19:08:34.543Z,14.73
2019-04-27T19:11:04.932Z,15.23
2019-04-27T19:13:35.609Z,15.65
2019-04-27T19:16:05.618Z,13.88
2019-04-27T19:18:35.655Z,16.95
2019-04-27T19:21:05.832Z,15.98
2019-04-27T19:23:35.779Z,14.90
2019-04-27T19:26:08.749Z,15.85
2019-04-27T19:28:40.790Z,16.85
2019-04-27T19:31:15.396Z,16.73
2019-04-27T19:33:45.410Z,14.23
2019-04-27T19:36:15.471Z,13.83
2019-04-27T19:38:45.880Z,12.88
2019-04-27T19:41:15.965Z,17.07
2019-04-27T19:43:45.922Z,15.10
2019-04-27T19:46:15.927Z,16.07
2019-04-27T19:48:45.962Z,16.57
2019-04-27T19:51:15.927Z,13.62
2019-04-27T19:53:45.905Z,14.73
2019-04-27T19:56:15.940Z,15.03
2019-04-27T19:58:58.187Z,15.10
2019-04-27T20:01:30.034Z,18.25
2019-04-27T20:04:08.613Z,17.23
2019-04-27T20:06:38.875Z,18.20
2019-04-27T20:09:27.734Z,15.50
2019-04-27T20:11:58.394Z,18.50
2019-04-27T20:14:30.846Z,18.82
2019-04-27T20:17:01.015Z,16.50
2019-04-27T20:19:31.515Z,18.73
2019-04-27T20:22:01.285Z,18.25
2019-04-27T20:24:33.540Z,20.00
2019-04-27T20:27:04.169Z,19.05
2019-04-27T20:29:34.390Z,20.77
2019-04-27T20:32:05.507Z,19.25
2019-04-27T20:34:35.512Z,20.12
2019-04-27T20:37:05.967Z,24.80
2019-04-27T20:39:36.067Z,20.08
2019-04-27T20:42:06.559Z,22.05
2019-04-27T20:44:36.761Z,21.37
2019-04-27T20:47:06.815Z,22.00
2019-04-27T20:49:37.692Z,21.00
2019-04-27T20:52:12.210Z,24.30
2019-04-27T20:54:42.335Z,21.77
2019-04-27T20:57:12.415Z,21.30
2019-04-27T20:59:42.520Z,21.15
2019-04-27T21:02:32.115Z,23.57
2019-04-27T21:05:03.759Z,22.32
2019-04-27T21:07:53.920Z,27.20
2019-04-27T21:10:24.048Z,24.23
2019-04-27T21:12:54.094Z,22.58
2019-04-27T21:15:24.426Z,21.45
2019-04-27T21:17:54.437Z,30.05
2019-04-27T21:20:24.440Z,25.60
2019-04-27T21:22:54.431Z,24.37
2019-04-27T21:25:24.394Z,24.98
2019-04-27T21:27:54.540Z,25.57
2019-04-27T21:30:24.545Z,26.85
2019-04-27T21:32:54.491Z,26.55
2019-04-27T21:35:24.591Z,29.45
2019-04-27T21:37:54.610Z,28.52
2019-04-27T21:40:24.583Z,31.00
2019-04-27T21:42:54.606Z,29.40
2019-04-27T21:45:24.777Z,35.68
2019-04-27T21:47:54.716Z,36.83
2019-04-27T21:50:24.658Z,37.20
2019-04-27T21:53:14.998Z,40.38
2019-04-27T21:55:44.984Z,41.00
2019-04-27T21:58:28.147Z,40.83
2019-04-27T22:00:48.326Z,41.70
2019-04-27T22:03:21.561Z,42.80
2019-04-27T22:05:51.703Z,47.30
2019-04-27T22:08:21.695Z,45.50
2019-04-27T22:10:51.663Z,44.48
2019-04-27T22:13:22.364Z,46.33
2019-04-27T22:15:52.372Z,46.18
2019-04-27T22:18:22.392Z,48.70
2019-04-27T22:20:52.355Z,41.10
2019-04-27T22:23:31.574Z,46.88
2019-04-27T22:26:01.755Z,45.40
2019-04-27T22:28:44.191Z,49.33
2019-04-27T22:31:03.429Z,46.77
2019-04-27T22:33:33.440Z,51.73
2019-04-27T22:36:03.362Z,52.62
2019-04-27T22:38:33.309Z,51.75
2019-04-27T22:41:18.428Z,50.28
2019-04-27T22:43:53.034Z,52.33
2019-04-27T22:46:27.591Z,53.65
2019-04-27T22:48:58.631Z,54.03
2019-04-27T22:51:28.592Z,55.03
2019-04-27T22:53:58.546Z,53.05
2019-04-27T22:56:28.596Z,56.85
2019-04-27T22:59:03.617Z,59.23
2019-04-27T23:01:40.683Z,58.20
2019-04-27T23:04:32.589Z,61.25
2019-04-27T23:07:03.042Z,55.85
2019-04-27T23:09:33.022Z,59.38
2019-04-27T23:12:03.248Z,54.50
2019-04-27T23:14:33.218Z,61.37
2019-04-27T23:17:11.479Z,59.93
2019-04-27T23:19:42.837Z,66.53
2019-04-27T23:22:13.050Z,65.12
2019-04-27T23:24:43.001Z,65.80
2019-04-27T23:27:15.276Z,62.80
2019-04-27T23:29:44.807Z,67.67
2019-04-27T23:32:25.374Z,67.25
2019-04-27T23:34:55.358Z,68.42
2019-04-27T23:37:25.305Z,68.40
2019-04-27T23:39:55.339Z,69.25
2019-04-27T23:42:25.516Z,71.50
2019-04-27T23:44:55.539Z,68.90
2019-04-27T23:47:25.574Z,68.40
2019-04-27T23:49:55.509Z,77.37
2019-04-27T23:52:30.280Z,73.62
2019-04-27T23:55:02.238Z,73.67
2019-04-27T23:57:32.005Z,81.25
